Time;durP1;ratioP1;P1;durP2;ratioP2;P2;SDS_P1;SDS_P2;PMS_P1;PMS_P2;Temp;Humidity;BMP_temperature;BMP_pressure;BME280_temperature;BME280_humidity;BME280_pressure;Samples;Min_cycle;Max_cycle;Signal;HPM_P1;HPM_P2
2024/01/22 00:02:22;;;;;;;5.27;3.77;;;;;;;4.98;89.93;100605.25;5029988;28;20591;-79
2024/01/22 00:04:48;;;;;;;8.73;4.63;;;;;;;5.02;89.62;100611.25;5026809;28;20207;-79
2024/01/22 00:07:16;;;;;;;6.87;5.33;;;;;;;5.05;89.63;100605.84;5029105;28;20199;-80
2024/01/22 00:09:43;;;;;;;6.67;4.60;;;;;;;5.06;89.25;100605.78;5024646;28;20205;-80
2024/01/22 00:12:09;;;;;;;7.43;4.10;;;;;;;5.06;89.48;100570.59;5031256;28;20238;-80
2024/01/22 00:14:36;;;;;;;4.53;3.43;;;;;;;5.12;89.57;100560.66;5021829;28;20205;-80
2024/01/22 00:17:02;;;;;;;7.73;4.67;;;;;;;5.14;89.01;100571.16;5029649;28;20205;-80
2024/01/22 00:19:29;;;;;;;7.67;4.87;;;;;;;5.09;88.92;100557.28;5018118;28;20758;-80
2024/01/22 00:21:55;;;;;;;6.43;4.23;;;;;;;5.06;89.37;100565.31;5037239;28;20296;-80
2024/01/22 00:24:23;;;;;;;5.97;4.00;;;;;;;5.09;89.31;100579.25;5027155;28;20574;-80
2024/01/22 00:26:49;;;;;;;8.73;4.53;;;;;;;5.09;89.48;100552.00;5031443;28;20198;-80
2024/01/22 00:29:16;;;;;;;8.20;4.90;;;;;;;5.13;89.27;100541.25;5025263;28;20214;-80
2024/01/22 00:31:42;;;;;;;9.77;4.63;;;;;;;5.19;88.99;100513.75;5041476;28;20234;-80
2024/01/22 00:34:09;;;;;;;6.33;4.03;;;;;;;5.26;88.59;100512.53;5036976;28;20809;-80
2024/01/22 00:36:35;;;;;;;6.80;4.40;;;;;;;5.26;88.35;100498.47;5034884;28;20674;-80
2024/01/22 00:39:02;;;;;;;5.80;4.10;;;;;;;5.31;88.32;100485.94;5032232;28;20202;-80
2024/01/22 00:41:30;;;;;;;6.70;4.50;;;;;;;5.29;88.58;100493.06;5035254;28;20229;-80
2024/01/22 00:43:56;;;;;;;7.53;3.80;;;;;;;5.38;87.75;100482.06;5032993;28;20202;-79
2024/01/22 00:46:22;;;;;;;6.63;4.00;;;;;;;5.41;87.65;100492.50;5031470;28;20202;-80
2024/01/22 00:48:49;;;;;;;5.83;4.07;;;;;;;5.37;87.70;100502.38;5023375;28;20575;-80
2024/01/22 00:51:15;;;;;;;4.57;2.93;;;;;;;5.44;87.51;100485.31;5029023;28;20630;-79
2024/01/22 00:53:42;;;;;;;6.50;4.00;;;;;;;5.46;87.20;100449.13;5030900;28;20249;-80
2024/01/22 00:56:08;;;;;;;7.13;4.27;;;;;;;5.50;86.81;100477.13;5034389;28;20570;-80
2024/01/22 00:58:36;;;;;;;6.17;4.07;;;;;;;5.55;86.64;100469.81;5028011;28;20569;-80
2024/01/22 01:01:03;;;;;;;4.83;3.83;;;;;;;5.59;86.19;100446.78;5036438;28;20230;-80
2024/01/22 01:03:29;;;;;;;5.43;3.27;;;;;;;5.61;86.38;100434.34;5026192;28;20206;-79
2024/01/22 01:05:56;;;;;;;5.17;3.07;;;;;;;5.63;86.29;100434.28;5025160;28;20206;-79
2024/01/22 01:08:22;;;;;;;4.93;3.20;;;;;;;5.63;86.69;100390.22;5031052;28;20209;-79
2024/01/22 01:10:49;;;;;;;5.53;3.07;;;;;;;5.68;87.15;100387.38;5032365;28;20221;-79
2024/01/22 01:13:15;;;;;;;5.77;3.30;;;;;;;5.66;87.09;100376.88;5029707;28;20226;-79
2024/01/22 01:15:43;;;;;;;5.20;3.47;;;;;;;5.70;87.58;100356.47;5030673;28;20214;-79
2024/01/22 01:18:10;;;;;;;6.37;3.23;;;;;;;5.72;87.46;100310.53;5022292;28;20229;-79
2024/01/22 01:20:37;;;;;;;5.67;3.70;;;;;;;5.71;87.57;100329.13;5032259;28;20622;-80
2024/01/22 01:23:03;;;;;;;5.00;3.23;;;;;;;5.70;87.71;100327.41;5028629;28;20586;-79
2024/01/22 01:25:30;;;;;;;5.77;3.57;;;;;;;5.75;87.33;100350.00;5030092;28;20218;-79
2024/01/22 01:27:56;;;;;;;3.93;2.80;;;;;;;5.74;87.58;100347.44;5031074;28;20202;-79
2024/01/22 01:30:23;;;;;;;5.07;2.73;;;;;;;5.77;87.49;100342.88;5027827;28;20218;-79
2024/01/22 01:32:51;;;;;;;6.17;2.10;;;;;;;5.77;87.34;100340.22;5022157;28;20221;-80
2024/01/22 01:35:17;;;;;;;7.23;3.33;;;;;;;5.77;87.51;100316.44;5030412;28;20206;-79
2024/01/22 01:37:44;;;;;;;3.33;2.60;;;;;;;5.80;87.02;100312.78;5028178;28;20213;-80
2024/01/22 01:40:11;;;;;;;4.73;2.90;;;;;;;5.78;87.48;100304.09;5030809;28;20238;-80
2024/01/22 01:42:41;;;;;;;5.27;4.07;;;;;;;5.79;87.13;100293.44;5033566;28;20202;-80
2024/01/22 01:45:13;;;;;;;5.47;3.40;;;;;;;5.79;87.02;100267.00;5027059;28;20206;-80
2024/01/22 01:47:40;;;;;;;4.27;2.87;;;;;;;5.81;87.30;100283.66;5027658;28;20642;-79
2024/01/22 01:50:09;;;;;;;3.70;2.40;;;;;;;5.79;87.32;100260.88;5026482;28;20633;-79
2024/01/22 01:52:37;;;;;;;4.60;3.03;;;;;;;5.86;87.10;100259.66;5028871;28;20253;-80
2024/01/22 01:55:04;;;;;;;4.37;2.73;;;;;;;5.88;86.83;100242.81;5033944;28;20213;-80
2024/01/22 01:57:31;;;;;;;2.83;2.00;;;;;;;5.96;87.48;100199.25;5031559;28;20212;-80
2024/01/22 01:59:58;;;;;;;4.83;2.13;;;;;;;5.99;86.68;100185.91;5027163;28;20226;-80
2024/01/22 02:02:25;;;;;;;5.17;3.20;;;;;;;6.00;87.32;100196.41;5030444;28;20206;-80
2024/01/22 02:04:51;;;;;;;6.47;3.10;;;;;;;5.99;86.88;100223.75;5027659;28;20211;-79
2024/01/22 02:07:19;;;;;;;3.63;2.30;;;;;;;6.05;87.40;100204.94;5033464;28;21473;-79
2024/01/22 02:09:47;;;;;;;3.60;2.10;;;;;;;6.11;87.17;100236.34;5026927;28;20594;-80
2024/01/22 02:12:14;;;;;;;3.80;2.60;;;;;;;6.14;87.00;100228.25;5029530;28;20313;-80
2024/01/22 02:14:40;;;;;;;3.67;1.83;;;;;;;6.20;87.49;100208.56;5030634;28;20233;-79
2024/01/22 02:17:07;;;;;;;5.47;3.10;;;;;;;6.18;87.81;100169.00;5031576;28;20213;-79
2024/01/22 02:19:33;;;;;;;3.93;2.80;;;;;;;6.21;87.93;100199.72;5033766;28;20219;-80
2024/01/22 02:22:00;;;;;;;3.13;2.13;;;;;;;6.24;88.48;100191.63;5034221;28;20201;-80
2024/01/22 02:24:28;;;;;;;2.30;2.00;;;;;;;6.28;87.72;100164.91;5036248;28;20206;-80
2024/01/22 02:26:54;;;;;;;2.63;2.10;;;;;;;6.33;88.05;100135.59;5031564;28;20210;-80
2024/01/22 02:29:20;;;;;;;3.87;2.43;;;;;;;6.32;88.71;100146.25;5041019;28;20236;-79
2024/01/22 02:31:48;;;;;;;3.60;2.70;;;;;;;6.33;88.80;100119.72;5032993;28;20245;-80
2024/01/22 02:34:15;;;;;;;6.53;3.20;;;;;;;6.34;88.80;100115.28;5030260;28;20234;-80
2024/01/22 02:36:42;;;;;;;4.40;2.57;;;;;;;6.28;89.02;100122.59;5028886;28;20210;-80
2024/01/22 02:39:08;;;;;;;3.07;2.20;;;;;;;6.32;88.88;100096.84;5030666;28;20206;-80
2024/01/22 02:41:36;;;;;;;3.70;2.40;;;;;;;6.35;88.69;100086.09;5032409;28;20226;-80
2024/01/22 02:44:03;;;;;;;4.00;2.20;;;;;;;6.40;88.02;100072.63;5033780;28;20241;-80
2024/01/22 02:46:29;;;;;;;3.47;2.37;;;;;;;6.41;88.62;100075.19;5031708;28;20241;-79
2024/01/22 02:48:56;;;;;;;4.63;2.40;;;;;;;6.47;88.07;100087.22;5031369;28;21468;-79
2024/01/22 02:51:22;;;;;;;4.20;2.40;;;;;;;6.52;87.75;100064.00;5030700;28;20692;-79
2024/01/22 02:53:49;;;;;;;4.73;3.03;;;;;;;6.53;87.78;100087.75;5033194;28;20237;-80
2024/01/22 02:56:18;;;;;;;7.43;1.90;;;;;;;6.54;87.26;100046.25;5032009;28;20213;-80
2024/01/22 02:58:45;;;;;;;5.90;3.47;;;;;;;6.50;88.37;100042.94;5027710;28;20213;-80
2024/01/22 03:01:12;;;;;;;4.60;1.73;;;;;;;6.51;87.62;100049.06;5031962;28;20226;-80
2024/01/22 03:03:40;;;;;;;3.43;2.20;;;;;;;6.57;87.30;100022.28;5034547;28;20198;-80
2024/01/22 03:06:07;;;;;;;3.20;1.70;;;;;;;6.67;87.46;100017.31;5033638;28;20221;-79
2024/01/22 03:08:34;;;;;;;3.20;1.80;;;;;;;6.72;87.58;100023.19;5025218;28;20286;-80
2024/01/22 03:11:01;;;;;;;2.67;1.43;;;;;;;6.78;86.48;100026.34;5033684;28;20761;-80
2024/01/22 03:13:27;;;;;;;5.27;2.50;;;;;;;6.83;86.91;100003.09;5033226;28;20583;-80
2024/01/22 03:15:55;;;;;;;3.23;2.00;;;;;;;6.88;86.16;100001.03;5032854;28;20215;-80
2024/01/22 03:18:21;;;;;;;2.70;1.70;;;;;;;6.95;85.77;100002.41;5034887;28;20694;-80
2024/01/22 03:20:48;;;;;;;4.70;1.90;;;;;;;7.01;85.80;100008.25;5029698;28;20608;-80
2024/01/22 03:23:15;;;;;;;5.10;2.10;;;;;;;7.02;85.82;100020.56;5032531;28;20959;-80
2024/01/22 03:25:41;;;;;;;3.77;1.97;;;;;;;7.05;85.96;100012.44;5030109;28;20222;-80
2024/01/22 03:28:07;;;;;;;3.17;1.97;;;;;;;7.03;85.02;100028.41;5032240;28;20218;-80
2024/01/22 03:30:34;;;;;;;3.93;2.10;;;;;;;7.06;85.29;100030.03;5029371;28;20226;-80
2024/01/22 03:33:02;;;;;;;4.37;2.30;;;;;;;7.10;85.41;100020.97;5036680;28;20603;-80
2024/01/22 03:35:29;;;;;;;2.93;1.90;;;;;;;7.13;84.59;100020.78;5039407;28;20571;-80
2024/01/22 03:37:55;;;;;;;4.37;2.07;;;;;;;7.11;85.37;100022.69;5035038;28;20292;-79
2024/01/22 03:40:22;;;;;;;3.47;1.80;;;;;;;7.13;84.30;100015.50;5031105;28;20695;-80
2024/01/22 03:42:48;;;;;;;5.00;2.03;;;;;;;7.16;84.33;100012.69;5030537;28;20551;-79
2024/01/22 03:45:15;;;;;;;3.20;2.23;;;;;;;7.17;84.66;100001.97;5028179;28;20214;-80
2024/01/22 03:47:41;;;;;;;2.67;1.90;;;;;;;7.16;84.58;100010.03;5029569;28;20679;-80
2024/01/22 03:50:10;;;;;;;2.40;2.00;;;;;;;7.20;83.96;100003.56;5027496;28;20226;-79
2024/01/22 03:52:36;;;;;;;1.73;1.30;;;;;;;7.22;84.40;100012.28;5032472;28;20289;-80
2024/01/22 03:55:03;;;;;;;3.17;1.90;;;;;;;7.28;84.11;100017.22;5030510;28;20721;-80
2024/01/22 03:57:30;;;;;;;2.30;1.60;;;;;;;7.27;84.11;99981.09;5027830;28;20554;-80
2024/01/22 03:59:56;;;;;;;2.27;1.73;;;;;;;7.28;83.93;99977.50;5036409;28;20748;-80
2024/01/22 04:02:22;;;;;;;4.43;2.20;;;;;;;7.22;84.30;99976.06;5030446;28;20658;-80
2024/01/22 04:04:50;;;;;;;2.37;1.60;;;;;;;7.24;84.96;99947.69;5041162;28;20630;-80
2024/01/22 04:07:18;;;;;;;3.87;1.80;;;;;;;7.27;84.26;99967.84;5030612;28;20256;-80
2024/01/22 04:09:45;;;;;;;3.57;1.77;;;;;;;7.28;84.58;99974.84;5035080;28;20221;-79
2024/01/22 04:12:12;;;;;;;2.63;1.70;;;;;;;7.26;84.41;99987.34;5032239;28;20209;-80
2024/01/22 04:14:38;;;;;;;5.00;2.77;;;;;;;7.23;84.50;100000.75;5031113;28;20229;-80
2024/01/22 04:17:05;;;;;;;2.60;1.70;;;;;;;7.25;84.57;99999.72;5032936;28;20450;-80
2024/01/22 04:19:31;;;;;;;5.20;2.03;;;;;;;7.27;84.49;99991.69;5029004;28;21639;-79
2024/01/22 04:21:58;;;;;;;2.50;1.80;;;;;;;7.30;84.74;99996.81;5032419;28;20236;-79
2024/01/22 04:24:26;;;;;;;2.33;1.70;;;;;;;7.29;84.39;99974.75;5039428;28;20202;-80
2024/01/22 04:26:53;;;;;;;3.43;1.93;;;;;;;7.31;84.92;99983.47;5032930;28;20658;-79
2024/01/22 04:29:19;;;;;;;2.00;1.13;;;;;;;7.38;84.77;99960.09;5028492;28;20213;-80
2024/01/22 04:31:46;;;;;;;4.03;1.93;;;;;;;7.38;84.32;99983.06;5029774;28;20241;-80
2024/01/22 04:34:12;;;;;;;3.33;1.77;;;;;;;7.35;84.66;99972.66;5029745;28;20230;-80
2024/01/22 04:36:39;;;;;;;3.20;1.77;;;;;;;7.35;85.07;100002.66;5030713;28;20665;-80
2024/01/22 04:39:06;;;;;;;2.30;1.90;;;;;;;7.36;84.71;99961.13;5031640;28;20559;-80
2024/01/22 04:41:33;;;;;;;3.17;1.70;;;;;;;7.39;84.87;99969.75;5033444;28;20587;-79
2024/01/22 04:44:00;;;;;;;2.67;1.60;;;;;;;7.40;84.30;99965.28;5035343;28;20530;-80
2024/01/22 04:46:27;;;;;;;3.30;1.57;;;;;;;7.47;84.67;99959.53;5033119;28;20202;-80
2024/01/22 04:48:53;;;;;;;1.97;1.60;;;;;;;7.48;84.95;99963.91;5030298;28;20207;-80
2024/01/22 04:51:20;;;;;;;2.40;1.40;;;;;;;7.45;84.51;99972.03;5028150;28;20229;-80
2024/01/22 04:53:46;;;;;;;2.17;1.60;;;;;;;7.47;83.62;99967.50;5029426;28;20226;-80
2024/01/22 04:56:13;;;;;;;3.37;1.93;;;;;;;7.48;84.06;99953.31;5034639;28;20206;-80
2024/01/22 04:58:40;;;;;;;2.47;1.50;;;;;;;7.51;84.18;99953.13;5029759;28;20206;-80
2024/01/22 05:01:07;;;;;;;2.83;1.47;;;;;;;7.56;84.17;99934.25;5031340;28;20245;-80
2024/01/22 05:03:34;;;;;;;2.40;1.50;;;;;;;7.56;84.22;99951.00;5036838;28;20717;-80
2024/01/22 05:06:00;;;;;;;3.20;1.70;;;;;;;7.55;84.22;99945.81;5031936;28;20715;-79
2024/01/22 05:08:27;;;;;;;2.23;1.67;;;;;;;7.53;84.09;99951.19;5032008;28;20214;-80
2024/01/22 05:10:53;;;;;;;3.53;1.60;;;;;;;7.59;83.82;99940.22;5030994;28;20225;-80
2024/01/22 05:13:20;;;;;;;3.53;1.80;;;;;;;7.63;83.39;99936.44;5035027;28;20830;-80
2024/01/22 05:15:47;;;;;;;2.73;1.33;;;;;;;7.64;83.85;99934.66;5029386;28;20590;-80
2024/01/22 05:18:15;;;;;;;2.50;1.40;;;;;;;7.64;83.61;99946.09;5034762;28;20202;-80
2024/01/22 05:20:41;;;;;;;2.87;1.47;;;;;;;7.63;84.09;99948.84;5033839;28;20230;-80
2024/01/22 05:23:07;;;;;;;2.70;1.67;;;;;;;7.68;84.04;99935.31;5029399;28;20207;-80
2024/01/22 05:25:34;;;;;;;2.23;1.47;;;;;;;7.74;83.51;99940.22;5028436;28;20206;-80
2024/01/22 05:28:00;;;;;;;3.30;1.70;;;;;;;7.74;83.70;99919.84;5029950;28;20206;-80
2024/01/22 05:30:27;;;;;;;2.97;1.20;;;;;;;7.76;83.70;99917.09;5026083;28;20230;-80
2024/01/22 05:32:55;;;;;;;3.40;2.27;;;;;;;7.77;84.05;99916.16;5028460;28;20211;-80
2024/01/22 05:35:21;;;;;;;2.30;1.17;;;;;;;7.79;84.57;99925.72;5025890;28;20248;-80
2024/01/22 05:37:49;;;;;;;2.53;1.50;;;;;;;7.81;84.66;99912.38;5026121;28;20210;-80
2024/01/22 05:40:16;;;;;;;2.87;1.37;;;;;;;7.78;85.25;99920.50;5030158;28;20218;-80
2024/01/22 05:42:43;;;;;;;2.73;1.40;;;;;;;7.78;85.65;99913.41;5033798;28;20213;-81
2024/01/22 05:45:10;;;;;;;3.37;1.53;;;;;;;7.84;86.24;99913.03;5032190;28;20202;-82
2024/01/22 05:47:36;;;;;;;2.07;1.10;;;;;;;7.83;86.37;99902.53;5027776;28;20213;-82
2024/01/22 05:50:06;;;;;;;2.10;1.23;;;;;;;7.85;87.35;99882.09;5026902;28;20335;-81
2024/01/22 05:52:32;;;;;;;2.80;1.30;;;;;;;7.88;88.33;99874.75;5040869;28;20201;-82
2024/01/22 05:54:59;;;;;;;1.90;1.57;;;;;;;7.87;89.38;99870.44;5033148;28;20237;-83
2024/01/22 05:57:26;;;;;;;3.57;1.00;;;;;;;7.84;90.51;99873.28;5037382;28;20210;-83
2024/01/22 05:59:53;;;;;;;2.17;1.50;;;;;;;7.81;90.80;99881.41;5038553;28;20217;-83
2024/01/22 06:02:19;;;;;;;3.00;1.30;;;;;;;7.78;92.45;99888.72;5033628;28;20211;-83
2024/01/22 06:04:46;;;;;;;1.53;1.17;;;;;;;7.73;93.18;99856.34;5033068;28;20202;-84
2024/01/22 06:07:14;;;;;;;1.80;1.23;;;;;;;7.71;93.88;99860.88;5032451;28;20224;-83
2024/01/22 06:09:40;;;;;;;1.90;1.13;;;;;;;7.69;95.08;99849.56;5035271;28;20202;-83
2024/01/22 06:12:08;;;;;;;2.50;1.20;;;;;;;7.68;94.85;99847.84;5035656;28;20853;-83
2024/01/22 06:14:35;;;;;;;1.67;1.07;;;;;;;7.65;95.73;99847.09;5039489;28;20257;-82
2024/01/22 06:17:01;;;;;;;1.70;1.17;;;;;;;7.64;96.57;99845.41;5032447;28;20202;-83
2024/01/22 06:19:28;;;;;;;1.47;1.13;;;;;;;7.64;97.80;99842.75;5035676;28;20202;-82
2024/01/22 06:21:54;;;;;;;1.80;1.17;;;;;;;7.63;98.44;99832.25;5030471;28;20321;-82
2024/01/22 06:24:22;;;;;;;2.23;1.20;;;;;;;7.59;98.00;99833.38;5033176;28;20202;-82
2024/01/22 06:26:49;;;;;;;1.50;1.20;;;;;;;7.61;98.52;99829.69;5036014;28;20580;-82
2024/01/22 06:29:15;;;;;;;2.77;1.03;;;;;;;7.63;99.32;99840.19;5034636;28;20218;-82
2024/01/22 06:31:42;;;;;;;2.00;1.40;;;;;;;7.60;99.39;99822.69;5037455;28;20233;-81
2024/01/22 06:34:08;;;;;;;2.80;1.30;;;;;;;7.60;100.00;99843.88;5034069;28;20356;-81
2024/01/22 06:36:35;;;;;;;2.23;1.40;;;;;;;7.58;100.00;99840.47;5035640;28;20204;-81
2024/01/22 06:39:02;;;;;;;3.57;1.50;;;;;;;7.54;100.00;99830.16;5031766;28;20215;-81
2024/01/22 06:41:29;;;;;;;2.23;1.30;;;;;;;7.55;100.00;99831.88;5035343;28;20226;-81
2024/01/22 06:43:56;;;;;;;2.73;1.17;;;;;;;7.58;100.00;99823.72;5028825;28;20205;-81
2024/01/22 06:46:23;;;;;;;1.20;1.07;;;;;;;7.62;100.00;99833.19;5037773;28;20198;-81
2024/01/22 06:48:49;;;;;;;2.00;1.00;;;;;;;7.64;100.00;99842.75;5031918;28;20202;-81
2024/01/22 06:51:16;;;;;;;1.13;0.97;;;;;;;7.62;100.00;99834.03;5031378;28;20230;-81
2024/01/22 06:53:43;;;;;;;1.93;0.93;;;;;;;7.65;100.00;99828.53;5032196;28;20321;-81
2024/01/22 06:56:09;;;;;;;2.03;1.20;;;;;;;7.62;100.00;99818.13;5036547;28;20230;-81
2024/01/22 06:58:37;;;;;;;1.30;1.20;;;;;;;7.64;100.00;99852.50;5032668;28;20203;-81
2024/01/22 07:01:05;;;;;;;3.00;0.90;;;;;;;7.71;100.00;99829.06;5031955;28;20233;-81
2024/01/22 07:03:32;;;;;;;1.77;1.13;;;;;;;7.66;100.00;99837.34;5028817;28;20207;-81
2024/01/22 07:05:58;;;;;;;1.67;0.87;;;;;;;7.69;100.00;99838.94;5032104;28;20205;-81
2024/01/22 07:08:25;;;;;;;1.40;1.30;;;;;;;7.71;100.00;99829.94;5034311;28;20213;-81
2024/01/22 07:10:51;;;;;;;1.53;1.00;;;;;;;7.72;100.00;99828.13;5034817;28;20221;-80
2024/01/22 07:13:18;;;;;;;1.80;0.80;;;;;;;7.75;100.00;99850.00;5033629;28;20217;-81
2024/01/22 07:15:46;;;;;;;0.87;0.80;;;;;;;7.75;100.00;99844.69;5036265;28;20612;-81
2024/01/22 07:18:12;;;;;;;1.23;0.67;;;;;;;7.79;100.00;99848.84;5031590;28;20210;-81
2024/01/22 07:20:39;;;;;;;2.67;0.90;;;;;;;7.78;100.00;99852.44;5031765;28;20234;-81
2024/01/22 07:23:05;;;;;;;0.97;0.87;;;;;;;7.85;100.00;99853.78;5029185;28;20221;-81
2024/01/22 07:25:36;;;;;;;1.10;0.73;;;;;;;7.80;100.00;99860.31;5036719;28;20241;-81
2024/01/22 07:28:02;;;;;;;2.50;0.63;;;;;;;7.83;100.00;99876.88;5032929;28;20615;-81
2024/01/22 07:30:29;;;;;;;0.87;0.60;;;;;;;7.91;100.00;99873.72;5034838;28;20758;-81
2024/01/22 07:32:57;;;;;;;3.10;2.00;;;;;;;7.91;100.00;99871.91;5032729;28;20206;-81
2024/01/22 07:35:25;;;;;;;0.60;0.50;;;;;;;7.93;100.00;99887.72;5030288;28;20616;-81
2024/01/22 07:37:52;;;;;;;1.23;0.77;;;;;;;7.96;100.00;99893.69;5035610;28;20697;-81
2024/01/22 07:40:18;;;;;;;1.13;0.50;;;;;;;7.97;100.00;99884.78;5032322;28;20240;-80
2024/01/22 07:42:45;;;;;;;1.03;0.63;;;;;;;7.98;100.00;99864.41;5037293;28;20293;-81
2024/01/22 07:45:11;;;;;;;1.97;1.20;;;;;;;8.00;100.00;99868.69;5030414;28;20595;-81
2024/01/22 07:47:38;;;;;;;1.00;0.70;;;;;;;8.07;100.00;99878.88;5032255;28;20205;-81
2024/01/22 07:50:10;;;;;;;2.70;1.30;;;;;;;8.08;100.00;99875.25;5034096;28;20276;-81
2024/01/22 07:52:37;;;;;;;1.30;0.70;;;;;;;8.08;100.00;99862.00;5038984;28;20210;-81
2024/01/22 07:55:05;;;;;;;0.80;0.57;;;;;;;8.06;100.00;99869.22;5037884;28;20246;-81
2024/01/22 07:57:32;;;;;;;2.03;0.97;;;;;;;8.10;100.00;99870.72;5037459;28;20206;-81
2024/01/22 07:59:58;;;;;;;0.70;0.50;;;;;;;8.11;99.62;99880.38;5038641;28;20235;-81
2024/01/22 08:02:25;;;;;;;0.90;0.60;;;;;;;8.12;99.73;99876.78;5033837;28;20204;-81
2024/01/22 08:04:51;;;;;;;0.60;0.60;;;;;;;8.13;99.01;99895.25;5040147;28;20203;-81
2024/01/22 08:07:19;;;;;;;1.60;0.70;;;;;;;8.14;98.86;99883.69;5027492;28;20206;-81
2024/01/22 08:09:46;;;;;;;2.83;0.60;;;;;;;8.17;99.16;99875.53;5027462;28;20206;-80
2024/01/22 08:12:12;;;;;;;1.40;0.70;;;;;;;8.16;98.89;99870.31;5029666;28;20829;-80
2024/01/22 08:14:39;;;;;;;2.57;0.70;;;;;;;8.23;97.80;99866.31;5031895;28;20226;-80
2024/01/22 08:17:05;;;;;;;0.70;0.53;;;;;;;8.24;98.01;99868.84;5031361;28;20230;-80
2024/01/22 08:19:33;;;;;;;0.50;0.50;;;;;;;8.26;97.32;99859.00;5030713;28;20210;-80
2024/01/22 08:22:02;;;;;;;1.77;0.73;;;;;;;8.27;97.83;99858.03;5029853;28;20222;-80
2024/01/22 08:24:30;;;;;;;1.70;0.60;;;;;;;8.26;97.28;99888.16;5029907;28;20220;-81
2024/01/22 08:26:56;;;;;;;0.70;0.60;;;;;;;8.25;97.82;99865.25;5035527;28;20220;-81
2024/01/22 08:29:23;;;;;;;1.83;1.17;;;;;;;8.25;98.09;99833.41;5036196;28;20298;-81
2024/01/22 08:31:49;;;;;;;0.63;0.40;;;;;;;8.24;98.42;99849.47;5032501;28;20222;-80
2024/01/22 08:34:15;;;;;;;0.77;0.57;;;;;;;8.24;98.48;99849.47;5026570;28;20205;-80
2024/01/22 08:36:42;;;;;;;0.87;0.40;;;;;;;8.29;97.87;99858.78;5030221;28;20253;-80
2024/01/22 08:39:09;;;;;;;0.60;0.50;;;;;;;8.27;98.14;99839.47;5036684;28;20210;-80
2024/01/22 08:41:37;;;;;;;1.13;0.63;;;;;;;8.27;98.22;99830.66;5035270;28;20229;-80
2024/01/22 08:44:05;;;;;;;0.67;0.67;;;;;;;8.26;99.46;99843.06;5033768;28;20210;-80
2024/01/22 08:46:32;;;;;;;0.60;0.40;;;;;;;8.31;99.63;99854.25;5030769;28;20253;-80
2024/01/22 08:49:04;;;;;;;0.60;0.50;;;;;;;8.27;99.84;99852.72;5030664;28;20320;-80
2024/01/22 08:51:30;;;;;;;1.67;0.70;;;;;;;8.27;100.00;99881.06;5027864;28;20295;-80
2024/01/22 08:53:57;;;;;;;1.60;0.50;;;;;;;8.27;100.00;99863.34;5027730;28;20198;-80
2024/01/22 08:56:23;;;;;;;1.83;0.60;;;;;;;8.29;100.00;99850.84;5027565;28;20229;-81
2024/01/22 08:58:51;;;;;;;1.07;0.50;;;;;;;8.34;100.00;99870.00;5032381;28;20209;-80
2024/01/22 09:01:18;;;;;;;1.13;0.60;;;;;;;8.30;100.00;99871.09;5025986;28;20229;-80
2024/01/22 09:03:45;;;;;;;2.20;0.40;;;;;;;8.29;100.00;99860.59;5029784;28;20265;-80
2024/01/22 09:06:11;;;;;;;0.67;0.60;;;;;;;8.23;100.00;99872.47;5021894;28;20732;-80
2024/01/22 09:08:38;;;;;;;0.70;0.50;;;;;;;8.25;100.00;99862.59;5023730;28;20622;-80
2024/01/22 09:11:04;;;;;;;1.77;0.60;;;;;;;8.19;100.00;99860.38;5021110;28;20222;-80
2024/01/22 09:13:31;;;;;;;0.73;0.43;;;;;;;8.24;100.00;99858.25;5027180;28;20207;-80
2024/01/22 09:15:59;;;;;;;1.00;0.80;;;;;;;8.20;100.00;99853.25;5020874;28;20222;-81
2024/01/22 09:18:25;;;;;;;0.57;0.50;;;;;;;8.15;100.00;99861.50;5027699;28;20202;-80
2024/01/22 09:20:52;;;;;;;0.53;0.40;;;;;;;8.13;100.00;99871.38;5028213;28;20957;-80
2024/01/22 09:23:19;;;;;;;0.83;0.60;;;;;;;8.11;100.00;99862.66;5028754;28;20214;-79
2024/01/22 09:25:46;;;;;;;0.40;0.30;;;;;;;8.07;100.00;99863.81;5027472;28;20194;-80
2024/01/22 09:28:14;;;;;;;1.20;0.57;;;;;;;8.04;100.00;99861.38;5031625;28;20224;-80
2024/01/22 09:30:40;;;;;;;0.90;0.60;;;;;;;8.01;100.00;99858.91;5028147;28;20304;-81
2024/01/22 09:33:09;;;;;;;1.03;0.30;;;;;;;8.06;100.00;99861.28;5029184;28;20210;-81
2024/01/22 09:35:36;;;;;;;0.50;0.50;;;;;;;8.08;100.00;99851.41;5030268;28;20228;-81
2024/01/22 09:38:03;;;;;;;1.37;0.53;;;;;;;8.06;100.00;99848.03;5028497;28;20631;-82
2024/01/22 09:40:33;;;;;;;2.50;0.60;;;;;;;8.06;100.00;99840.06;5028965;28;20221;-81
2024/01/22 09:43:03;;;;;;;0.43;0.40;;;;;;;8.08;100.00;99840.78;5030457;28;20674;-81
2024/01/22 09:45:31;;;;;;;0.53;0.40;;;;;;;8.08;100.00;99831.03;5030423;28;20222;-81
2024/01/22 09:47:58;;;;;;;1.30;0.73;;;;;;;8.09;100.00;99808.88;5028132;28;20210;-81
2024/01/22 09:50:27;;;;;;;1.53;0.70;;;;;;;8.12;100.00;99811.31;5029898;28;20222;-80
2024/01/22 09:52:54;;;;;;;2.03;1.37;;;;;;;8.16;100.00;99806.66;5026009;28;20206;-81
2024/01/22 09:55:22;;;;;;;2.10;1.10;;;;;;;8.21;100.00;99799.25;5028795;28;20235;-81
2024/01/22 09:57:53;;;;;;;2.50;1.00;;;;;;;8.22;100.00;99795.66;5022957;28;20213;-81
2024/01/22 10:00:25;;;;;;;0.70;0.43;;;;;;;8.25;100.00;99792.78;5026947;28;20222;-81
2024/01/22 10:02:52;;;;;;;0.73;0.60;;;;;;;8.32;100.00;99802.06;5025139;28;20202;-81
2024/01/22 10:05:19;;;;;;;0.87;0.40;;;;;;;8.34;100.00;99794.84;5032211;28;20202;-81
2024/01/22 10:07:48;;;;;;;1.40;0.73;;;;;;;8.44;100.00;99789.75;5022234;28;20206;-81
2024/01/22 10:10:15;;;;;;;2.30;0.70;;;;;;;8.46;100.00;99794.00;5026802;28;20296;-82
2024/01/22 10:13:03;;;;;;;0.80;0.50;;;;;;;8.56;100.00;99789.78;5025601;28;20202;-81
2024/01/22 10:15:31;;;;;;;0.77;0.37;;;;;;;8.63;100.00;99795.50;5024926;28;20895;-81
2024/01/22 10:18:11;;;;;;;0.73;0.50;;;;;;;8.74;100.00;99786.81;5032101;28;20206;-81
2024/01/22 10:20:38;;;;;;;0.87;0.60;;;;;;;8.72;100.00;99780.75;5026723;28;20241;-81
2024/01/22 10:23:06;;;;;;;1.73;0.60;;;;;;;8.75;100.00;99762.81;5027859;28;20233;-81
2024/01/22 10:25:34;;;;;;;0.80;0.37;;;;;;;8.86;99.83;99785.97;5027001;28;20585;-81
2024/01/22 10:28:11;;;;;;;1.30;0.60;;;;;;;8.91;99.44;99778.53;5026531;28;20232;-81
2024/01/22 10:30:39;;;;;;;1.77;0.90;;;;;;;8.96;99.07;99779.88;5024229;28;20222;-81
2024/01/22 10:33:12;;;;;;;0.87;0.47;;;;;;;8.98;98.81;99747.91;5027884;28;20216;-81
2024/01/22 10:35:38;;;;;;;1.40;0.60;;;;;;;9.02;98.82;99763.53;5026847;28;20729;-81
2024/01/22 10:38:10;;;;;;;1.27;0.53;;;;;;;9.09;98.11;99761.28;5035343;28;20210;-81
2024/01/22 10:40:38;;;;;;;1.80;0.80;;;;;;;9.10;98.53;99762.13;5030919;28;20222;-82
2024/01/22 10:43:26;;;;;;;2.90;1.37;;;;;;;9.11;98.41;99782.44;5031571;28;20208;-81
2024/01/22 10:45:54;;;;;;;1.10;0.70;;;;;;;9.10;97.94;99772.75;5031484;28;20202;-81
2024/01/22 10:48:23;;;;;;;3.07;0.70;;;;;;;9.09;97.71;99763.94;5028561;28;20373;-81
2024/01/22 10:50:50;;;;;;;1.10;0.70;;;;;;;9.07;97.55;99775.63;5032077;28;20240;-81
2024/01/22 10:53:19;;;;;;;0.50;0.50;;;;;;;9.08;97.43;99769.38;5031757;28;20202;-82
2024/01/22 10:55:56;;;;;;;1.03;0.50;;;;;;;9.10;97.27;99788.69;5031848;28;20230;-80
2024/01/22 10:58:26;;;;;;;2.83;1.23;;;;;;;9.14;96.96;99768.91;5031202;28;20198;-80
2024/01/22 11:00:58;;;;;;;1.83;0.83;;;;;;;9.17;96.63;99768.69;5029219;28;20872;-80
2024/01/22 11:03:27;;;;;;;2.23;0.70;;;;;;;9.16;96.41;99764.34;5031216;28;20225;-80
2024/01/22 11:05:58;;;;;;;1.23;0.50;;;;;;;9.16;96.64;99767.00;5035095;28;20206;-80
2024/01/22 11:08:28;;;;;;;0.70;0.40;;;;;;;9.18;96.78;99760.63;5031999;28;20206;-80
2024/01/22 11:10:55;;;;;;;2.43;0.40;;;;;;;9.23;96.49;99771.78;5037178;28;20634;-80
2024/01/22 11:13:22;;;;;;;0.90;0.80;;;;;;;9.29;96.37;99757.22;5042312;28;20205;-80
2024/01/22 11:15:49;;;;;;;1.53;0.70;;;;;;;9.28;96.43;99753.69;5035729;28;20710;-80
2024/01/22 11:18:15;;;;;;;1.87;0.50;;;;;;;9.28;97.20;99752.84;5040199;28;20217;-80
2024/01/22 11:20:42;;;;;;;1.53;0.80;;;;;;;9.31;98.07;99742.00;5036908;28;20244;-80
2024/01/22 11:23:09;;;;;;;1.97;0.70;;;;;;;9.32;98.58;99749.84;5029683;28;20222;-80
2024/01/22 11:25:37;;;;;;;0.70;0.43;;;;;;;9.31;98.73;99723.41;5032497;28;20208;-80
2024/01/22 11:28:07;;;;;;;1.27;0.50;;;;;;;9.29;99.16;99731.47;5032865;28;20674;-80
2024/01/22 11:30:35;;;;;;;1.13;0.70;;;;;;;9.27;99.77;99748.50;5032186;28;20246;-80
2024/01/22 11:33:02;;;;;;;4.80;0.83;;;;;;;9.27;99.11;99728.09;5030568;28;20202;-80
2024/01/22 11:35:36;;;;;;;2.47;0.80;;;;;;;9.26;99.17;99733.50;5034562;28;20217;-81
2024/01/22 11:38:05;;;;;;;4.43;1.00;;;;;;;9.28;97.99;99724.47;5031806;28;20217;-82